createdAt,value
2022-12-16T00:01:28.114Z,1.50
2022-12-16T00:03:56.752Z,1.50
2022-12-16T00:06:26.390Z,1.40
2022-12-16T00:08:53.657Z,1.40
2022-12-16T00:11:21.591Z,1.40
2022-12-16T00:13:48.684Z,1.40
2022-12-16T00:16:18.171Z,1.50
2022-12-16T00:18:45.687Z,1.40
2022-12-16T00:21:12.794Z,1.50
2022-12-16T00:23:41.530Z,1.40
2022-12-16T00:26:09.203Z,1.50
2022-12-16T00:28:36.339Z,1.50
2022-12-16T00:31:03.178Z,1.40
2022-12-16T00:33:30.985Z,1.40
2022-12-16T00:35:57.952Z,1.40
2022-12-16T00:38:26.810Z,1.50
2022-12-16T00:40:53.591Z,1.50
2022-12-16T00:43:21.460Z,1.50
2022-12-16T00:45:48.777Z,1.50
2022-12-16T00:48:15.905Z,1.50
2022-12-16T00:50:49.312Z,1.50
2022-12-16T00:53:19.021Z,1.50
2022-12-16T00:55:46.546Z,1.50
2022-12-16T00:58:13.734Z,1.60
2022-12-16T01:00:40.654Z,1.60
2022-12-16T01:03:07.570Z,1.60
2022-12-16T01:05:34.412Z,1.60
2022-12-16T01:08:01.146Z,1.60
2022-12-16T01:10:27.956Z,1.60
2022-12-16T01:12:54.711Z,1.60
2022-12-16T01:15:22.070Z,1.60
2022-12-16T01:17:48.806Z,1.60
2022-12-16T01:20:15.840Z,1.60
2022-12-16T01:22:42.660Z,1.60
2022-12-16T01:25:12.895Z,1.60
2022-12-16T01:27:39.756Z,1.60
2022-12-16T01:30:07.323Z,1.60
2022-12-16T01:32:34.048Z,1.50
2022-12-16T01:35:00.971Z,1.50
2022-12-16T01:37:27.721Z,1.60
2022-12-16T01:39:54.434Z,1.50
2022-12-16T01:42:22.761Z,1.60
2022-12-16T01:44:52.138Z,1.60
2022-12-16T01:47:33.208Z,1.50
2022-12-16T01:50:05.010Z,1.50
2022-12-16T01:52:39.191Z,1.50
2022-12-16T01:55:30.647Z,1.50
2022-12-16T01:58:09.275Z,1.50
2022-12-16T02:00:37.222Z,1.50
2022-12-16T02:03:05.143Z,1.40
2022-12-16T02:05:34.519Z,1.40
2022-12-16T02:08:15.774Z,1.40
2022-12-16T02:10:42.430Z,1.40
2022-12-16T02:13:19.067Z,1.40
2022-12-16T02:16:22.980Z,1.40
2022-12-16T02:18:57.807Z,1.40
2022-12-16T02:21:36.199Z,1.40
2022-12-16T02:24:05.825Z,1.40
2022-12-16T02:27:03.388Z,1.40
2022-12-16T02:29:54.570Z,1.40
2022-12-16T02:32:29.204Z,1.40
2022-12-16T02:35:10.675Z,1.50
2022-12-16T02:37:37.335Z,1.50
2022-12-16T02:40:32.814Z,1.50
2022-12-16T02:43:18.144Z,1.60
2022-12-16T02:45:46.005Z,1.60
2022-12-16T02:48:12.830Z,1.60
2022-12-16T02:50:52.664Z,1.60
2022-12-16T02:53:20.782Z,1.60
2022-12-16T02:56:06.401Z,1.60
2022-12-16T02:58:39.386Z,1.60
2022-12-16T03:01:13.601Z,1.60
2022-12-16T03:03:43.455Z,1.60
2022-12-16T03:06:13.767Z,1.70
2022-12-16T03:08:45.511Z,1.70
2022-12-16T03:11:12.848Z,1.70
2022-12-16T03:13:44.755Z,1.70
2022-12-16T03:16:14.136Z,1.70
2022-12-16T03:18:44.147Z,1.70
2022-12-16T03:21:14.047Z,1.70
2022-12-16T03:23:56.251Z,1.70
2022-12-16T03:26:41.081Z,1.60
2022-12-16T03:29:25.550Z,1.60
2022-12-16T03:31:58.832Z,1.60
2022-12-16T03:35:05.514Z,1.60
2022-12-16T03:37:34.541Z,1.60
2022-12-16T03:40:05.979Z,1.50
2022-12-16T03:42:33.528Z,1.40
2022-12-16T03:45:00.485Z,1.40
2022-12-16T03:47:29.234Z,1.30
2022-12-16T03:49:56.098Z,1.30
2022-12-16T03:52:22.870Z,1.30
2022-12-16T03:54:49.559Z,1.20
2022-12-16T03:57:16.288Z,1.10
2022-12-16T03:59:43.523Z,1.10
2022-12-16T04:02:10.321Z,1.00
2022-12-16T04:04:37.127Z,1.00
2022-12-16T04:07:22.238Z,1.00
2022-12-16T04:09:50.230Z,1.00
2022-12-16T04:12:35.861Z,0.90
2022-12-16T04:15:37.747Z,0.90
2022-12-16T04:18:23.969Z,0.80
2022-12-16T04:21:13.524Z,0.80
2022-12-16T04:24:09.526Z,0.80
2022-12-16T04:26:56.267Z,0.80
2022-12-16T04:29:23.643Z,0.80
2022-12-16T04:31:52.044Z,0.80
2022-12-16T04:34:25.769Z,0.80
2022-12-16T04:37:17.091Z,0.70
2022-12-16T04:40:03.248Z,0.80
2022-12-16T04:42:48.618Z,0.80
2022-12-16T04:45:34.209Z,0.70
2022-12-16T04:48:19.553Z,0.70
2022-12-16T04:51:05.080Z,0.70
2022-12-16T04:53:50.579Z,0.70
2022-12-16T04:56:35.935Z,0.70
2022-12-16T04:59:21.392Z,0.70
2022-12-16T05:02:06.983Z,0.70
2022-12-16T05:04:52.204Z,0.70
2022-12-16T05:07:38.661Z,0.70
2022-12-16T05:10:25.108Z,0.70
2022-12-16T05:13:12.634Z,0.70
2022-12-16T05:15:58.547Z,0.70
2022-12-16T05:18:43.965Z,0.70
2022-12-16T05:21:30.186Z,0.70
2022-12-16T05:24:15.632Z,0.70
2022-12-16T05:27:01.047Z,0.70
2022-12-16T05:29:46.395Z,0.60
2022-12-16T05:32:31.763Z,0.60
2022-12-16T05:35:17.212Z,0.60
2022-12-16T05:38:02.709Z,0.50
2022-12-16T05:40:48.055Z,0.50
2022-12-16T05:43:33.921Z,0.50
2022-12-16T05:46:19.542Z,0.50
2022-12-16T05:49:04.906Z,0.50
2022-12-16T05:51:50.351Z,0.50
2022-12-16T05:54:35.771Z,0.60
2022-12-16T05:57:20.974Z,0.60
2022-12-16T06:00:06.375Z,0.60
2022-12-16T06:02:51.939Z,0.60
2022-12-16T06:05:37.074Z,0.60
2022-12-16T06:08:22.557Z,0.60
2022-12-16T06:11:07.849Z,0.60
2022-12-16T06:13:53.343Z,0.60
2022-12-16T06:16:38.767Z,0.60
2022-12-16T06:19:24.387Z,0.60
2022-12-16T06:22:09.846Z,0.60
2022-12-16T06:24:55.099Z,0.60
2022-12-16T06:27:40.591Z,0.60
2022-12-16T06:30:26.591Z,0.50
2022-12-16T06:33:11.950Z,0.50
2022-12-16T06:35:57.541Z,0.50
2022-12-16T06:38:42.890Z,0.50
2022-12-16T06:41:28.345Z,0.60
2022-12-16T06:44:13.790Z,0.50
2022-12-16T06:46:59.255Z,0.50
2022-12-16T06:49:44.655Z,0.50
2022-12-16T06:52:30.085Z,0.50
2022-12-16T06:55:15.480Z,0.40
2022-12-16T06:58:01.296Z,0.40
2022-12-16T07:00:47.396Z,0.40
2022-12-16T07:03:35.999Z,0.40
2022-12-16T07:06:21.676Z,0.40
2022-12-16T07:09:07.136Z,0.40
2022-12-16T07:11:52.691Z,0.30
2022-12-16T07:14:38.115Z,0.40
2022-12-16T07:17:23.556Z,0.30
2022-12-16T07:20:08.903Z,0.40
2022-12-16T07:23:15.985Z,0.40
2022-12-16T07:26:04.555Z,0.30
2022-12-16T07:28:50.043Z,0.30
2022-12-16T07:31:35.558Z,0.30
2022-12-16T07:34:20.885Z,0.30
2022-12-16T07:37:06.419Z,0.30
2022-12-16T07:39:55.069Z,0.30
2022-12-16T07:42:41.354Z,0.30
2022-12-16T07:45:27.832Z,0.30
2022-12-16T07:48:13.468Z,0.30
2022-12-16T07:50:59.490Z,0.30
2022-12-16T07:53:44.954Z,0.40
2022-12-16T07:56:30.921Z,0.40
2022-12-16T07:59:16.307Z,0.50
2022-12-16T08:02:01.769Z,0.50
2022-12-16T08:04:47.259Z,0.50
2022-12-16T08:07:32.685Z,0.50
2022-12-16T08:10:17.968Z,0.50
2022-12-16T08:13:03.563Z,0.50
2022-12-16T08:15:48.884Z,0.40
2022-12-16T08:18:34.344Z,0.50
2022-12-16T08:21:19.862Z,0.50
2022-12-16T08:24:05.322Z,0.60
2022-12-16T08:26:50.981Z,0.60
2022-12-16T08:29:44.879Z,0.70
2022-12-16T08:32:31.166Z,0.80
2022-12-16T08:35:16.877Z,0.80
2022-12-16T08:38:02.146Z,0.80
2022-12-16T08:40:47.577Z,0.70
2022-12-16T08:43:33.379Z,0.80
2022-12-16T08:46:19.077Z,0.80
2022-12-16T08:49:04.225Z,0.80
2022-12-16T08:51:49.671Z,0.90
2022-12-16T08:54:35.146Z,0.90
2022-12-16T08:57:20.791Z,1.10
2022-12-16T09:00:06.202Z,1.10
2022-12-16T09:02:51.781Z,1.30
2022-12-16T09:05:37.979Z,1.40
2022-12-16T09:08:23.979Z,1.40
2022-12-16T09:11:09.438Z,1.50
2022-12-16T09:13:54.765Z,1.50
2022-12-16T09:16:40.498Z,1.50
2022-12-16T09:19:25.801Z,1.50
2022-12-16T09:22:11.342Z,1.50
2022-12-16T09:24:56.896Z,1.50
2022-12-16T09:27:42.044Z,1.50
2022-12-16T09:30:28.048Z,1.50
2022-12-16T09:33:13.533Z,1.50
2022-12-16T09:35:58.898Z,1.40
2022-12-16T09:38:44.420Z,1.40
2022-12-16T09:42:02.589Z,1.40
2022-12-16T09:44:51.215Z,1.40
2022-12-16T09:48:06.218Z,1.40
2022-12-16T09:50:54.751Z,1.40
2022-12-16T09:53:41.466Z,1.50
2022-12-16T09:56:34.503Z,1.50
2022-12-16T09:59:24.417Z,1.50
2022-12-16T10:02:11.012Z,1.50
2022-12-16T10:04:56.205Z,1.60
2022-12-16T10:07:42.383Z,1.50
2022-12-16T10:10:47.211Z,1.50
2022-12-16T10:13:50.195Z,1.40
2022-12-16T10:16:51.011Z,1.40
2022-12-16T10:19:46.019Z,1.30
2022-12-16T10:22:39.092Z,1.30
2022-12-16T10:25:42.747Z,1.30
2022-12-16T10:28:37.268Z,1.20
2022-12-16T10:31:34.460Z,1.10
2022-12-16T10:34:20.019Z,1.20
2022-12-16T10:37:12.358Z,1.20
2022-12-16T10:40:04.203Z,1.20
2022-12-16T10:42:54.104Z,1.30
2022-12-16T10:46:04.410Z,1.30
2022-12-16T10:48:56.400Z,1.30
2022-12-16T10:51:45.368Z,1.30
2022-12-16T10:54:39.550Z,1.30
2022-12-16T10:57:50.924Z,1.50
2022-12-16T11:01:04.192Z,1.60
2022-12-16T11:03:52.774Z,1.60
2022-12-16T11:06:57.748Z,1.60
2022-12-16T11:09:51.905Z,1.60
2022-12-16T11:12:41.579Z,1.60
2022-12-16T11:15:50.590Z,1.60
2022-12-16T11:18:38.851Z,1.50
2022-12-16T11:21:31.479Z,1.40
2022-12-16T11:24:43.226Z,1.40
2022-12-16T11:28:02.718Z,1.40
2022-12-16T11:30:48.367Z,1.40
2022-12-16T11:33:41.600Z,1.40
2022-12-16T11:36:36.337Z,1.30
2022-12-16T11:39:23.173Z,1.30
2022-12-16T11:42:11.640Z,1.20
2022-12-16T11:45:15.359Z,1.30
2022-12-16T11:48:15.289Z,1.30
2022-12-16T11:51:09.330Z,1.40
2022-12-16T11:54:11.020Z,1.40
2022-12-16T11:57:00.485Z,1.40
2022-12-16T12:00:03.331Z,1.50
2022-12-16T12:02:55.820Z,1.50
2022-12-16T12:05:57.174Z,1.50
2022-12-16T12:09:19.086Z,1.60
2022-12-16T12:12:17.554Z,1.50
2022-12-16T12:15:14.799Z,1.50
2022-12-16T12:18:00.083Z,1.50
2022-12-16T12:21:23.130Z,1.50
2022-12-16T12:24:23.383Z,1.50
2022-12-16T12:27:34.925Z,1.50
2022-12-16T12:30:28.722Z,1.50
2022-12-16T12:33:26.153Z,1.60
2022-12-16T12:36:19.214Z,1.60
2022-12-16T12:39:25.565Z,1.60
2022-12-16T12:42:35.151Z,1.60
2022-12-16T12:45:48.417Z,1.70
2022-12-16T12:48:45.019Z,1.70
2022-12-16T12:51:38.102Z,1.80
2022-12-16T12:54:54.325Z,1.80
2022-12-16T12:57:44.686Z,1.70
2022-12-16T13:00:38.189Z,1.60
2022-12-16T13:03:46.704Z,1.60
2022-12-16T13:06:39.196Z,1.50
2022-12-16T13:09:57.761Z,1.40
2022-12-16T13:12:45.122Z,1.40
2022-12-16T13:15:37.446Z,1.40
2022-12-16T13:18:22.887Z,1.40
2022-12-16T13:21:16.412Z,1.30
2022-12-16T13:24:02.861Z,1.30
2022-12-16T13:26:51.481Z,1.30
2022-12-16T13:29:44.070Z,1.30
2022-12-16T13:32:37.196Z,1.30
2022-12-16T13:35:28.310Z,1.30
2022-12-16T13:38:16.275Z,1.20
2022-12-16T13:41:18.075Z,1.20
2022-12-16T13:44:17.187Z,1.10
2022-12-16T13:47:10.872Z,0.90
2022-12-16T13:49:56.439Z,0.80
2022-12-16T13:52:42.000Z,0.80
2022-12-16T13:55:59.206Z,0.80
2022-12-16T13:59:03.275Z,0.70
2022-12-16T14:01:55.743Z,0.60
2022-12-16T14:04:52.300Z,0.60
2022-12-16T14:07:41.229Z,0.60
2022-12-16T14:10:47.871Z,0.50
2022-12-16T14:13:38.796Z,0.40
2022-12-16T14:16:44.011Z,0.40
2022-12-16T14:20:01.427Z,0.30
2022-12-16T14:23:39.221Z,0.20
2022-12-16T14:26:22.307Z,0.10
2022-12-16T14:29:07.939Z,0.10
2022-12-16T14:31:59.035Z,0.00
2022-12-16T14:34:55.313Z,0.10
2022-12-16T14:37:43.184Z,0.00
2022-12-16T14:40:49.038Z,0.00
2022-12-16T14:43:42.744Z,0.00
2022-12-16T14:46:42.927Z,-0.10
2022-12-16T14:49:37.246Z,-0.10
2022-12-16T14:52:37.880Z,-0.10
2022-12-16T14:55:38.962Z,-0.10
2022-12-16T14:58:35.102Z,-0.10
2022-12-16T15:01:29.772Z,-0.10
2022-12-16T15:04:16.622Z,-0.20
2022-12-16T15:07:05.855Z,-0.20
2022-12-16T15:09:58.883Z,-0.20
2022-12-16T15:12:49.975Z,-0.30
2022-12-16T15:15:48.783Z,-0.30
2022-12-16T15:18:38.893Z,-0.40
2022-12-16T15:21:25.573Z,-0.40
2022-12-16T15:24:11.358Z,-0.50
2022-12-16T15:26:56.966Z,-0.50
2022-12-16T15:29:54.322Z,-0.50
2022-12-16T15:32:53.713Z,-0.60
2022-12-16T15:35:44.764Z,-0.60
2022-12-16T15:38:53.319Z,-0.70
2022-12-16T15:41:38.672Z,-0.70
2022-12-16T15:44:24.727Z,-0.70
2022-12-16T15:47:10.200Z,-0.70
2022-12-16T15:50:03.499Z,-0.70
2022-12-16T15:52:57.927Z,-0.70
2022-12-16T15:55:52.633Z,-0.80
2022-12-16T15:58:47.190Z,-0.80
2022-12-16T16:01:35.663Z,-0.90
2022-12-16T16:04:21.568Z,-0.90
2022-12-16T16:07:11.161Z,-0.90
2022-12-16T16:09:58.461Z,-0.90
2022-12-16T16:12:44.525Z,-1.00
2022-12-16T16:15:33.033Z,-1.00
2022-12-16T16:18:21.523Z,-0.90
2022-12-16T16:21:07.439Z,-1.00
2022-12-16T16:23:52.828Z,-1.00
2022-12-16T16:26:40.902Z,-1.00
2022-12-16T16:29:29.002Z,-1.00
2022-12-16T16:32:14.674Z,-1.00
2022-12-16T16:35:00.154Z,-1.00
2022-12-16T16:37:45.707Z,-1.00
2022-12-16T16:40:54.430Z,-1.00
2022-12-16T16:43:40.271Z,-1.10
2022-12-16T16:46:58.738Z,-1.10
2022-12-16T16:49:51.974Z,-1.10
2022-12-16T16:52:40.007Z,-1.10
2022-12-16T16:55:26.118Z,-1.10
2022-12-16T16:58:11.621Z,-1.00
2022-12-16T17:00:57.246Z,-1.00
2022-12-16T17:03:43.013Z,-1.00
2022-12-16T17:06:28.914Z,-1.00
2022-12-16T17:09:14.501Z,-1.00
2022-12-16T17:12:00.086Z,-1.00
2022-12-16T17:14:45.569Z,-1.00
2022-12-16T17:17:31.066Z,-0.90
2022-12-16T17:20:16.766Z,-0.90
2022-12-16T17:23:19.184Z,-0.90
2022-12-16T17:26:04.362Z,-0.90
2022-12-16T17:28:49.880Z,-0.90
2022-12-16T17:31:35.397Z,-0.90
2022-12-16T17:34:20.886Z,-0.80
2022-12-16T17:37:06.233Z,-0.80
2022-12-16T17:39:51.517Z,-0.80
2022-12-16T17:42:37.302Z,-0.70
2022-12-16T17:45:27.702Z,-0.70
2022-12-16T17:48:12.792Z,-0.70
2022-12-16T17:50:58.383Z,-0.70
2022-12-16T17:53:43.777Z,-0.80
2022-12-16T17:56:29.339Z,-0.80
2022-12-16T17:59:14.930Z,-0.80
2022-12-16T18:02:00.419Z,-0.80
2022-12-16T18:04:45.817Z,-0.80
2022-12-16T18:07:31.471Z,-0.80
2022-12-16T18:10:17.007Z,-0.80
2022-12-16T18:13:02.643Z,-0.80
2022-12-16T18:15:48.050Z,-0.70
2022-12-16T18:18:33.508Z,-0.80
2022-12-16T18:21:32.363Z,-0.80
2022-12-16T18:24:17.932Z,-0.80
2022-12-16T18:27:03.583Z,-0.80
2022-12-16T18:29:48.933Z,-0.80
2022-12-16T18:32:35.417Z,-0.80
2022-12-16T18:35:21.355Z,-0.80
2022-12-16T18:38:06.653Z,-0.80
2022-12-16T18:40:52.179Z,-0.80
2022-12-16T18:43:37.776Z,-0.90
2022-12-16T18:46:23.309Z,-0.80
2022-12-16T18:49:11.552Z,-0.80
2022-12-16T18:51:57.046Z,-0.80
2022-12-16T18:54:42.670Z,-0.80
2022-12-16T18:57:28.051Z,-0.80
2022-12-16T19:00:13.655Z,-0.80
2022-12-16T19:02:59.288Z,-0.80
2022-12-16T19:05:44.758Z,-0.80
2022-12-16T19:08:30.376Z,-0.80
2022-12-16T19:11:18.846Z,-0.80
2022-12-16T19:14:04.177Z,-0.80
2022-12-16T19:16:49.813Z,-0.80
2022-12-16T19:19:35.025Z,-0.80
2022-12-16T19:22:20.470Z,-0.80
2022-12-16T19:25:05.962Z,-0.80
2022-12-16T19:27:52.099Z,-0.80
2022-12-16T19:30:37.845Z,-0.80
2022-12-16T19:33:23.323Z,-0.80
2022-12-16T19:36:08.849Z,-0.80
2022-12-16T19:38:54.893Z,-0.80
2022-12-16T19:41:42.084Z,-0.80
2022-12-16T19:44:27.770Z,-0.80
2022-12-16T19:47:15.757Z,-0.80
2022-12-16T19:50:01.215Z,-0.80
2022-12-16T19:52:46.899Z,-0.80
2022-12-16T19:55:32.297Z,-0.80
2022-12-16T19:58:17.750Z,-0.80
2022-12-16T20:01:03.322Z,-0.80
2022-12-16T20:03:49.226Z,-0.80
2022-12-16T20:06:35.052Z,-0.80
2022-12-16T20:09:20.631Z,-0.70
2022-12-16T20:12:06.170Z,-0.80
2022-12-16T20:14:51.732Z,-0.80
2022-12-16T20:17:37.041Z,-0.80
2022-12-16T20:20:23.071Z,-0.80
2022-12-16T20:23:08.449Z,-0.80
2022-12-16T20:29:00.013Z,-0.80
2022-12-16T20:31:45.460Z,-0.80
2022-12-16T20:34:30.935Z,-0.80
2022-12-16T20:37:16.362Z,-0.70
2022-12-16T20:40:01.816Z,-0.70
2022-12-16T20:42:47.487Z,-0.70
2022-12-16T20:45:33.480Z,-0.80
2022-12-16T20:48:19.254Z,-0.80
2022-12-16T20:51:18.622Z,-0.80
2022-12-16T20:54:09.017Z,-0.80
2022-12-16T20:56:54.863Z,-0.80
2022-12-16T20:59:41.465Z,-0.80
2022-12-16T21:02:33.526Z,-0.80
2022-12-16T21:05:19.844Z,-0.80
2022-12-16T21:08:05.390Z,-0.80
2022-12-16T21:10:51.639Z,-0.80
2022-12-16T21:13:37.536Z,-0.80
2022-12-16T21:16:24.863Z,-0.80
2022-12-16T21:19:10.294Z,-0.80
2022-12-16T21:21:56.445Z,-0.80
2022-12-16T21:24:56.070Z,-0.70
2022-12-16T21:27:41.880Z,-0.70
2022-12-16T21:30:27.999Z,-0.80
2022-12-16T21:33:13.473Z,-0.80
2022-12-16T21:35:58.677Z,-0.80
2022-12-16T21:38:44.032Z,-0.80
2022-12-16T21:41:29.254Z,-0.80
2022-12-16T21:44:14.822Z,-0.80
2022-12-16T21:46:59.989Z,-0.80
2022-12-16T21:49:45.460Z,-0.80
2022-12-16T21:52:41.354Z,-0.70
2022-12-16T21:55:40.494Z,-0.70
2022-12-16T21:58:30.121Z,-0.80
2022-12-16T22:01:17.086Z,-0.80
2022-12-16T22:04:02.550Z,-0.70
2022-12-16T22:06:49.081Z,-0.70
2022-12-16T22:09:35.056Z,-0.70
2022-12-16T22:12:20.627Z,-0.70
2022-12-16T22:15:05.864Z,-0.70
2022-12-16T22:17:57.796Z,-0.70
2022-12-16T22:20:44.337Z,-0.70
2022-12-16T22:23:30.108Z,-0.70
2022-12-16T22:26:20.182Z,-0.70
2022-12-16T22:29:05.836Z,-0.80
2022-12-16T22:31:51.034Z,-0.80
2022-12-16T22:34:37.453Z,-0.80
2022-12-16T22:37:22.943Z,-0.80
2022-12-16T22:40:08.270Z,-0.90
2022-12-16T22:42:53.868Z,-0.90
2022-12-16T22:45:41.698Z,-0.90
2022-12-16T22:48:27.051Z,-0.90
2022-12-16T22:51:12.468Z,-0.90
2022-12-16T22:53:57.896Z,-0.90
2022-12-16T22:56:43.276Z,-0.90
2022-12-16T22:59:28.639Z,-0.90
2022-12-16T23:02:13.970Z,-0.90
2022-12-16T23:04:59.455Z,-0.90
2022-12-16T23:07:44.659Z,-0.90
2022-12-16T23:10:30.196Z,-1.00
2022-12-16T23:13:15.572Z,-1.00
2022-12-16T23:16:00.762Z,-1.00
2022-12-16T23:18:46.296Z,-1.00
2022-12-16T23:21:36.220Z,-1.00
2022-12-16T23:24:21.734Z,-1.10
2022-12-16T23:27:06.985Z,-1.10
2022-12-16T23:29:52.384Z,-1.10
2022-12-16T23:32:30.072Z,-0.80
2022-12-16T23:32:42.487Z,-1.10
2022-12-16T23:35:27.919Z,-1.10
2022-12-16T23:38:24.147Z,-1.10
2022-12-16T23:41:17.216Z,-1.10
2022-12-16T23:44:02.786Z,-1.20
2022-12-16T23:46:48.768Z,-1.20
2022-12-16T23:49:34.037Z,-1.20
2022-12-16T23:52:19.655Z,-1.20
2022-12-16T23:55:04.837Z,-1.20
2022-12-16T23:57:50.389Z,-1.20
